Weather History for Washington, DC

Change the Weather History Date:

Saturday, January 30, 2010

  Actual Average Record
Temperature  
Mean Temperature 21 °F 36 °F  
Max Temperature 23 °F 44 °F 77 °F (2002)
Min Temperature 18 °F 29 °F -6 °F (1873)
Degree Days  
Heating Degree Days 44 28  
Month to date heating degree days 874 869  
Since 1 July heating degree days 2301 2350  
Cooling Degree Days 0 0  
Month to date cooling degree days 0 0  
Year to date cooling degree days 0 0  
Moisture  
Dew Point 10 °F    
Average Humidity 60    
Maximum Humidity 80    
Minimum Humidity 39    
Precipitation  
Precipitation 0.13 in 0.09 in 0.97 in (1939)
Month to date precipitation 1.36 2.71  
Year to date precipitation 1.36 2.71  
Snow  
Snow 6.40 in 0.30 in 11.50 in (1930)
Month to date snowfall 7.4 5.4  
Since 1 July snowfall 24.0 8.2  
Snow Depth 0.00 in    
Sea Level Pressure  
Sea Level Pressure 30.16 in    
Wind  
Wind Speed 13 mph (NNE)    
Max Wind Speed 21 mph    
Max Gust Speed 25 mph    
Visibility 3 miles    
Events Snow    
T = Trace of Precipitation, MM = Missing Value Source: NWS Daily Summary

Daily Weather History Graph

Daily Weather History Graph

Search for Another Location

Airport:

Trip Planner

Search our weather history database for the weather conditions in past years. The results will help you decide how hot, cold, wet, or windy it might be!

Date:

Astronomy

Jan. 30, 2010 Rise Set
Actual Time 7:16 AM EST 5:27 PM EST
Civil Twilight 6:47 AM EST 5:55 PM EST
Nautical Twilight 6:15 AM EST 6:27 PM EST
Astronomical Twilight 5:44 AM EST 6:58 PM EST
Moon 6:20 PM EST (1/30) 7:21 AM EST (1/30)
Length of Visible Light 11h 07m
Length of Day
10h 11m
Full, 100% of the Moon is Illuminated
Jan 30
Full
Feb 5
Last Quarter
Feb 13
New
Feb 21
First Quarter
Feb 28
Full

Hourly Weather History & Observations

Time (EST) Temp. Windchill Dew Point Humidity Pressure Visibility Wind Dir Wind Speed Gust Speed Precip Events Conditions
12:52 AM 21.9 °F 9.2 °F 1.0 °F 40% 30.37 in 10.0 mi NW 13.8 mph - N/A   Overcast
1:52 AM 21.9 °F 12.5 °F 1.9 °F 42% 30.35 in 10.0 mi NNW 8.1 mph - N/A   Overcast
2:52 AM 21.9 °F 11.0 °F 1.9 °F 42% 30.33 in 10.0 mi North 10.4 mph - N/A   Overcast
3:52 AM 21.9 °F 9.2 °F 3.0 °F 44% 30.32 in 10.0 mi North 13.8 mph - N/A   Overcast
4:52 AM 21.9 °F 12.5 °F 1.9 °F 42% 30.30 in 10.0 mi North 8.1 mph - N/A   Overcast
5:52 AM 21.9 °F 10.4 °F 1.9 °F 42% 30.29 in 10.0 mi NNE 11.5 mph - N/A   Overcast
6:52 AM 21.9 °F 11.0 °F 1.9 °F 42% 30.27 in 10.0 mi NNE 10.4 mph - N/A   Overcast
7:52 AM 21.9 °F 10.4 °F 3.0 °F 44% 30.25 in 10.0 mi NNE 11.5 mph - N/A   Overcast
8:52 AM 21.9 °F 11.7 °F 3.0 °F 44% 30.26 in 10.0 mi NE 9.2 mph - N/A   Overcast
9:13 AM 21.2 °F 8.9 °F 5.0 °F 50% 30.26 in 5.0 mi East 12.7 mph 18.4 mph 0.00 in Snow Light Snow
9:16 AM 21.2 °F 9.5 °F 6.8 °F 54% 30.26 in 2.5 mi East 11.5 mph 18.4 mph 0.00 in Snow Light Snow
9:25 AM 21.2 °F 10.1 °F 6.8 °F 54% 30.24 in 2.5 mi NE 10.4 mph - 0.00 in Snow Light Snow
9:38 AM 19.4 °F 7.9 °F 8.6 °F 63% 30.25 in 1.5 mi ENE 10.4 mph 16.1 mph 0.00 in Snow Light Snow
9:52 AM 19.9 °F 8.6 °F 12.0 °F 71% 30.25 in 0.8 mi NE 10.4 mph - 0.00 in Snow Light Snow
9:56 AM 19.4 °F 10.4 °F 12.2 °F 74% 30.25 in 0.5 mi NNE 6.9 mph - 0.00 in Snow Snow
10:07 AM 19.4 °F 7.2 °F 12.2 °F 74% 30.26 in 0.5 mi NE 11.5 mph - 0.00 in Snow Snow
10:12 AM 19.4 °F 7.2 °F 12.2 °F 74% 30.26 in 0.2 mi NE 11.5 mph - 0.01 in Snow Heavy Snow
10:16 AM 19.4 °F 7.2 °F 12.2 °F 74% 30.26 in 0.2 mi NE 11.5 mph - 0.01 in Snow Heavy Snow
10:40 AM 17.6 °F 5.7 °F 12.2 °F 79% 30.25 in 0.2 mi NE 10.4 mph - 0.03 in Snow Heavy Snow
10:52 AM 18.0 °F 7.7 °F 12.9 °F 81% 30.27 in 0.5 mi NNE 8.1 mph - 0.04 in Snow Snow
11:19 AM 17.6 °F 8.2 °F 12.2 °F 79% 30.25 in 0.5 mi NE 6.9 mph - 0.02 in Snow Snow
11:52 AM 19.0 °F 5.6 °F 12.9 °F 77% 30.23 in 0.5 mi North 13.8 mph - 0.03 in Snow Snow
11:57 AM 17.6 °F 4.3 °F 12.2 °F 79% 30.24 in 0.2 mi North 12.7 mph - 0.00 in Snow Heavy Snow
12:05 PM 17.6 °F 4.3 °F 12.2 °F 79% 30.23 in 0.2 mi North 12.7 mph - 0.01 in Snow Heavy Snow
12:08 PM 17.6 °F 4.3 °F 12.2 °F 79% 30.23 in 0.2 mi North 12.7 mph - 0.01 in Snow Heavy Snow
12:40 PM 19.4 °F 7.9 °F 12.2 °F 74% 30.21 in 0.5 mi North 10.4 mph - 0.02 in Snow Snow
12:52 PM 19.0 °F 6.8 °F 12.9 °F 77% 30.19 in 0.5 mi NNE 11.5 mph - 0.03 in Snow Snow
1:12 PM 19.4 °F 7.9 °F 12.2 °F 74% 30.18 in 0.8 mi NNE 10.4 mph - 0.00 in Snow Light Snow
1:22 PM 19.4 °F 6.0 °F 12.2 °F 74% 30.17 in 1.0 mi NNE 13.8 mph - 0.01 in Snow Light Snow
1:31 PM 19.4 °F 4.1 °F 12.2 °F 74% 30.15 in 0.8 mi NNE 18.4 mph - 0.01 in Snow Light Snow
1:36 PM 19.4 °F 6.6 °F 12.2 °F 74% 30.15 in 1.0 mi NNE 12.7 mph - 0.01 in Snow Light Snow
1:41 PM 19.4 °F 6.6 °F 12.2 °F 74% 30.15 in 0.8 mi NNE 12.7 mph - 0.01 in Snow Light Snow
1:52 PM 19.0 °F 5.0 °F 12.0 °F 74% 30.15 in 0.8 mi North 15.0 mph - 0.01 in Snow Light Snow
1:55 PM 19.4 °F 5.0 °F 12.2 °F 74% 30.15 in 1.0 mi North 16.1 mph - 0.00 in Snow Light Snow
2:08 PM 19.4 °F 5.0 °F 12.2 °F 74% 30.14 in 1.0 mi NNE 16.1 mph - 0.01 in Snow Light Snow
2:19 PM 19.4 °F 5.5 °F 12.2 °F 74% 30.14 in 0.8 mi North 15.0 mph - 0.01 in Snow Light Snow
2:22 PM 19.4 °F 6.0 °F 12.2 °F 74% 30.14 in 0.8 mi NNE 13.8 mph - 0.01 in Snow Light Snow
2:39 PM 19.4 °F 6.6 °F 12.2 °F 74% 30.13 in 0.5 mi NNE 12.7 mph - 0.01 in Snow Snow
2:49 PM 19.4 °F 5.0 °F 12.2 °F 74% 30.13 in 0.8 mi NNE 16.1 mph - 0.01 in Snow Light Snow
2:52 PM 18.0 °F 3.1 °F 12.0 °F 78% 30.13 in 0.8 mi NNE 16.1 mph - 0.01 in Snow Light Snow
2:56 PM 17.6 °F 1.7 °F 12.2 °F 79% 30.12 in 0.8 mi NNE 18.4 mph - 0.00 in Snow Light Snow
3:22 PM 19.4 °F 5.0 °F 12.2 °F 74% 30.10 in 0.8 mi NNE 16.1 mph - 0.00 in Snow Light Snow
3:52 PM 18.0 °F 1.7 °F 12.0 °F 78% 30.09 in 0.8 mi NNE 19.6 mph - 0.00 in Snow Light Snow
4:38 PM 17.6 °F 2.7 °F 12.2 °F 79% 30.09 in 0.8 mi NNE 16.1 mph - 0.01 in Snow Light Snow
4:52 PM 18.0 °F 3.1 °F 12.0 °F 78% 30.08 in 0.8 mi NNE 16.1 mph - 0.01 in Snow Light Snow
5:13 PM 17.6 °F 1.7 °F 10.4 °F 73% 30.08 in 1.0 mi NNE 18.4 mph - 0.00 in Snow Light Snow
5:21 PM 17.6 °F 3.7 °F 12.2 °F 79% 30.08 in 1.2 mi NNE 13.8 mph - 0.00 in Snow Light Snow
5:37 PM 17.6 °F 2.7 °F 10.4 °F 73% 30.07 in 3.0 mi North 16.1 mph - 0.00 in Snow Light Snow
5:52 PM 18.0 °F 2.6 °F 10.9 °F 74% 30.07 in 4.0 mi North 17.3 mph - 0.00 in Snow Light Snow
6:14 PM 17.6 °F 3.2 °F 10.4 °F 73% 30.07 in 5.0 mi NNE 15.0 mph - 0.00 in Snow Light Snow
6:41 PM 17.6 °F 3.2 °F 10.4 °F 73% 30.07 in 6.0 mi North 15.0 mph - 0.00 in Snow Light Snow
6:52 PM 18.0 °F 3.6 °F 10.9 °F 74% 30.06 in 5.0 mi North 15.0 mph - 0.00 in Snow Light Snow
6:59 PM 17.6 °F 1.7 °F 10.4 °F 73% 30.06 in 4.0 mi North 18.4 mph - 0.00 in Snow Light Snow
7:40 PM 17.6 °F 4.3 °F 10.4 °F 73% 30.07 in 3.0 mi North 12.7 mph 21.9 mph 0.00 in Snow Light Snow
7:52 PM 19.0 °F 4.0 °F 12.0 °F 74% 30.06 in 2.0 mi North 17.3 mph - 0.00 in Snow Light Snow
8:03 PM 19.4 °F 6.6 °F 12.2 °F 74% 30.06 in 3.0 mi North 12.7 mph - 0.00 in Snow Light Snow
8:52 PM 19.0 °F 3.6 °F 10.9 °F 71% 30.05 in 3.0 mi North 18.4 mph - 0.00 in Snow Light Snow
9:37 PM 19.4 °F 5.5 °F 10.4 °F 68% 30.05 in 5.0 mi NNW 15.0 mph - 0.00 in Snow Light Snow
9:52 PM 19.0 °F 4.0 °F 10.0 °F 68% 30.05 in 5.0 mi North 17.3 mph - 0.00 in Snow Light Snow
10:38 PM 19.4 °F 7.2 °F 10.4 °F 68% 30.05 in 4.0 mi NNW 11.5 mph 21.9 mph 0.00 in Snow Light Snow
10:43 PM 17.6 °F 4.3 °F 10.4 °F 73% 30.05 in 3.0 mi North 12.7 mph - 0.00 in Snow Light Snow
10:52 PM 18.0 °F 4.2 °F 10.0 °F 71% 30.05 in 2.5 mi NNW 13.8 mph - 0.00 in Snow Light Snow
11:05 PM 17.6 °F 2.2 °F 10.4 °F 73% 30.06 in 3.0 mi NNW 17.3 mph - 0.00 in Snow Light Snow
11:18 PM 17.6 °F 2.7 °F 10.4 °F 73% 30.06 in 2.5 mi NNW 16.1 mph - 0.00 in Snow Light Snow
11:41 PM 17.6 °F 4.3 °F 10.4 °F 73% 30.06 in 2.5 mi NNW 12.7 mph - 0.00 in Snow Light Snow
11:52 PM 18.0 °F 4.8 °F 10.9 °F 74% 30.06 in 2.5 mi NNW 12.7 mph - 0.00 in Snow Light Snow
11:58 PM 17.6 °F 5.0 °F 10.4 °F 73% 30.06 in 4.0 mi NNW 11.5 mph - 0.00 in Snow Light Snow